createdAt,value
2022-09-28T00:00:48.776Z,1.30
2022-09-28T00:03:53.123Z,1.13
2022-09-28T00:06:55.787Z,1.00
2022-09-28T00:09:58.359Z,1.40
2022-09-28T00:13:02.824Z,1.20
2022-09-28T00:16:07.447Z,1.13
2022-09-28T00:19:10.863Z,1.00
2022-09-28T00:22:13.421Z,1.20
2022-09-28T00:25:17.014Z,1.25
2022-09-28T00:28:21.106Z,1.20
2022-09-28T00:31:25.082Z,1.10
2022-09-28T00:34:28.399Z,1.20
2022-09-28T00:37:31.118Z,1.20
2022-09-28T00:40:33.857Z,1.30
2022-09-28T00:43:38.138Z,1.40
2022-09-28T00:46:41.217Z,1.63
2022-09-28T00:49:46.296Z,1.60
2022-09-28T00:52:54.425Z,1.50
2022-09-28T00:56:01.737Z,1.58
2022-09-28T00:59:05.885Z,1.60
2022-09-28T01:02:10.494Z,1.70
2022-09-28T01:05:14.282Z,1.30
2022-09-28T01:08:21.240Z,1.58
2022-09-28T01:11:23.957Z,1.70
2022-09-28T01:14:28.044Z,1.60
2022-09-28T01:17:39.952Z,1.77
2022-09-28T01:21:01.008Z,1.43
2022-09-28T01:24:30.959Z,1.55
2022-09-28T01:27:39.524Z,1.50
2022-09-28T01:30:47.326Z,1.27
2022-09-28T01:33:56.569Z,1.80
2022-09-28T01:37:05.566Z,1.57
2022-09-28T01:40:11.185Z,1.52
2022-09-28T01:43:20.140Z,1.80
2022-09-28T01:46:26.366Z,1.60
2022-09-28T01:49:35.180Z,1.60
2022-09-28T01:52:44.275Z,1.50
2022-09-28T01:55:51.084Z,1.30
2022-09-28T01:59:00.782Z,1.50
2022-09-28T02:02:07.481Z,1.60
2022-09-28T02:05:16.158Z,1.70
2022-09-28T02:08:25.511Z,1.43
2022-09-28T02:11:28.729Z,1.55
2022-09-28T02:14:35.085Z,1.60
2022-09-28T02:17:38.102Z,1.20
2022-09-28T02:20:43.680Z,1.75
2022-09-28T02:23:55.255Z,1.47
2022-09-28T02:27:01.768Z,1.40
2022-09-28T02:30:07.880Z,1.70
2022-09-28T02:33:14.847Z,1.20
2022-09-28T02:36:17.997Z,1.60
2022-09-28T02:39:20.789Z,1.60
2022-09-28T02:42:29.161Z,1.45
2022-09-28T02:45:52.335Z,1.80
2022-09-28T02:49:22.591Z,1.40
2022-09-28T02:52:44.062Z,1.60
2022-09-28T02:55:59.711Z,1.27
2022-09-28T02:59:13.934Z,1.40
2022-09-28T03:02:27.456Z,1.90
2022-09-28T03:05:39.863Z,1.58
2022-09-28T03:08:49.291Z,1.67
2022-09-28T03:11:55.552Z,1.80
2022-09-28T03:15:09.275Z,1.85
2022-09-28T03:18:13.362Z,2.20
2022-09-28T03:21:16.501Z,1.52
2022-09-28T03:24:19.067Z,2.00
2022-09-28T03:27:21.897Z,1.90
2022-09-28T03:30:24.492Z,2.28
2022-09-28T03:33:28.520Z,1.63
2022-09-28T03:36:31.082Z,1.60
2022-09-28T03:39:33.670Z,1.73
2022-09-28T03:42:37.686Z,1.77
2022-09-28T03:45:40.285Z,1.80
2022-09-28T03:48:44.338Z,1.80
2022-09-28T03:51:47.819Z,1.77
2022-09-28T03:54:50.521Z,1.77
2022-09-28T03:57:56.197Z,1.75
2022-09-28T04:01:03.028Z,2.10
2022-09-28T04:04:07.103Z,1.83
2022-09-28T04:07:09.643Z,1.90
2022-09-28T04:10:12.354Z,2.27
2022-09-28T04:13:15.212Z,1.58
2022-09-28T04:16:18.963Z,1.77
2022-09-28T04:19:23.266Z,1.83
2022-09-28T04:22:25.822Z,1.92
2022-09-28T04:25:28.442Z,2.47
2022-09-28T04:28:48.725Z,2.00
2022-09-28T04:31:55.056Z,2.40
2022-09-28T04:34:59.153Z,2.50
2022-09-28T04:38:01.690Z,2.07
2022-09-28T04:41:04.936Z,2.25
2022-09-28T04:44:07.911Z,1.93
2022-09-28T04:47:11.315Z,2.25
2022-09-28T04:50:15.473Z,2.30
2022-09-28T04:53:18.031Z,2.20
2022-09-28T04:56:21.290Z,2.47
2022-09-28T04:59:24.091Z,2.17
2022-09-28T05:02:27.755Z,2.30
2022-09-28T05:05:31.675Z,2.40
2022-09-28T05:08:35.373Z,2.20
2022-09-28T05:11:37.943Z,2.30
2022-09-28T05:14:40.777Z,2.60
2022-09-28T05:17:43.835Z,2.50
2022-09-28T05:20:48.079Z,2.40
2022-09-28T05:23:50.762Z,2.30
2022-09-28T05:26:53.314Z,2.70
2022-09-28T05:29:55.969Z,2.63
2022-09-28T05:32:58.742Z,2.60
2022-09-28T05:36:03.144Z,2.95
2022-09-28T05:39:06.101Z,3.03
2022-09-28T05:42:08.781Z,3.40
2022-09-28T05:45:12.035Z,3.27
2022-09-28T05:48:14.985Z,3.97
2022-09-28T05:51:19.272Z,3.50
2022-09-28T05:54:22.023Z,3.63
2022-09-28T05:57:24.579Z,3.30
2022-09-28T06:00:27.790Z,3.00
2022-09-28T06:03:30.519Z,3.28
2022-09-28T06:06:35.713Z,3.28
2022-09-28T06:09:38.281Z,3.40
2022-09-28T06:12:41.238Z,3.57
2022-09-28T06:15:44.818Z,3.27
2022-09-28T06:18:47.386Z,3.30
2022-09-28T06:21:51.337Z,3.00
2022-09-28T06:24:53.937Z,3.40
2022-09-28T06:27:57.783Z,3.33
2022-09-28T06:31:01.135Z,3.13
2022-09-28T06:34:03.721Z,3.60
2022-09-28T06:37:07.614Z,3.10
2022-09-28T06:40:10.623Z,3.08
2022-09-28T06:43:15.283Z,3.90
2022-09-28T06:46:18.058Z,3.83
2022-09-28T06:49:20.621Z,3.53
2022-09-28T06:52:24.892Z,3.63
2022-09-28T06:55:28.202Z,2.83
2022-09-28T06:58:32.365Z,3.40
2022-09-28T07:01:35.001Z,3.70
2022-09-28T07:04:37.895Z,3.28
2022-09-28T07:07:42.869Z,3.70
2022-09-28T07:10:47.672Z,2.90
2022-09-28T07:13:51.559Z,3.23
2022-09-28T07:17:12.546Z,3.30
2022-09-28T07:20:19.393Z,3.30
2022-09-28T07:23:24.371Z,3.33
2022-09-28T07:26:26.980Z,3.95
2022-09-28T07:29:29.545Z,3.10
2022-09-28T07:32:34.448Z,2.80
2022-09-28T07:35:37.171Z,3.65
2022-09-28T07:38:41.334Z,3.40
2022-09-28T07:41:44.334Z,3.30
2022-09-28T07:44:47.069Z,3.60
2022-09-28T07:47:49.747Z,3.37
2022-09-28T07:50:53.733Z,3.00
2022-09-28T07:53:57.646Z,2.92
2022-09-28T07:57:00.311Z,3.38
2022-09-28T08:00:05.746Z,3.47
2022-09-28T08:03:08.298Z,3.47
2022-09-28T08:06:12.741Z,3.50
2022-09-28T08:09:17.620Z,3.70
2022-09-28T08:12:21.083Z,3.90
2022-09-28T08:15:23.999Z,4.13
2022-09-28T08:18:26.620Z,3.53
2022-09-28T08:21:46.278Z,4.05
2022-09-28T08:24:50.564Z,3.13
2022-09-28T08:27:53.240Z,3.65
2022-09-28T08:30:55.982Z,3.80
2022-09-28T08:33:58.777Z,3.83
2022-09-28T08:37:01.485Z,3.60
2022-09-28T08:40:06.418Z,3.50
2022-09-28T08:43:25.081Z,3.50
2022-09-28T08:46:32.598Z,3.60
2022-09-28T08:49:38.709Z,3.90
2022-09-28T08:52:41.573Z,3.30
2022-09-28T08:55:46.648Z,4.32
2022-09-28T08:58:55.493Z,4.93
2022-09-28T09:02:00.652Z,4.60
2022-09-28T09:05:06.848Z,3.80
2022-09-28T09:08:31.207Z,3.95
2022-09-28T09:11:50.522Z,4.10
2022-09-28T09:15:05.482Z,4.15
2022-09-28T09:18:22.358Z,4.40
2022-09-28T09:21:40.650Z,4.57
2022-09-28T09:24:50.004Z,3.50
2022-09-28T09:28:19.630Z,3.65
2022-09-28T09:31:40.475Z,4.60
2022-09-28T09:35:10.301Z,3.80
2022-09-28T09:38:33.977Z,3.63
2022-09-28T09:41:49.317Z,3.67
2022-09-28T09:45:24.939Z,3.45
2022-09-28T09:48:32.289Z,2.50
2022-09-28T09:51:42.969Z,2.90
2022-09-28T09:54:50.102Z,2.60
2022-09-28T09:57:55.638Z,2.97
2022-09-28T10:01:08.047Z,2.78
2022-09-28T10:04:18.808Z,2.28
2022-09-28T10:07:25.456Z,2.60
2022-09-28T10:10:30.956Z,1.73
2022-09-28T10:13:34.109Z,2.10
2022-09-28T10:16:38.309Z,2.50
2022-09-28T10:19:41.023Z,2.22
2022-09-28T10:22:45.311Z,2.50
2022-09-28T10:25:52.346Z,2.20
2022-09-28T10:28:59.204Z,1.60
2022-09-28T10:32:10.657Z,1.80
2022-09-28T10:35:22.573Z,1.70
2022-09-28T10:38:25.508Z,1.83
2022-09-28T10:41:28.130Z,1.33
2022-09-28T10:44:33.586Z,1.50
2022-09-28T10:47:37.768Z,1.50
2022-09-28T10:50:41.778Z,1.30
2022-09-28T10:54:00.242Z,1.20
2022-09-28T10:57:03.008Z,1.30
2022-09-28T11:00:08.307Z,1.30
2022-09-28T11:03:21.463Z,1.20
2022-09-28T11:06:26.020Z,1.20
2022-09-28T11:09:31.614Z,1.30
2022-09-28T11:12:43.589Z,0.97
2022-09-28T11:15:46.534Z,1.00
2022-09-28T11:18:50.489Z,1.80
2022-09-28T11:21:53.404Z,1.20
2022-09-28T11:25:14.537Z,1.90
2022-09-28T11:28:25.525Z,1.63
2022-09-28T11:31:30.116Z,2.10
2022-09-28T11:34:57.857Z,1.90
2022-09-28T11:38:16.512Z,2.72
2022-09-28T11:41:32.174Z,2.00
2022-09-28T11:44:41.617Z,2.10
2022-09-28T11:47:52.424Z,1.52
2022-09-28T11:51:01.309Z,1.90
2022-09-28T11:54:14.380Z,2.60
2022-09-28T11:57:21.748Z,2.63
2022-09-28T12:00:24.798Z,2.90
2022-09-28T12:03:36.528Z,2.08
2022-09-28T12:06:46.136Z,6.85
2022-09-28T12:09:55.749Z,3.70
2022-09-28T12:13:02.061Z,2.70
2022-09-28T12:19:35.964Z,2.05
2022-09-28T12:22:46.862Z,1.90
2022-09-28T12:25:56.019Z,2.17
2022-09-28T12:29:01.989Z,1.87
2022-09-28T12:32:13.868Z,2.72
2022-09-28T12:35:25.263Z,2.40
2022-09-28T12:38:54.175Z,1.95
2022-09-28T12:42:23.433Z,1.60
2022-09-28T12:45:53.188Z,2.90
2022-09-28T12:53:03.082Z,1.70
2022-09-28T12:56:16.816Z,1.60
2022-09-28T12:59:29.841Z,1.10
2022-09-28T13:03:12.267Z,1.45
2022-09-28T13:06:46.246Z,1.23
2022-09-28T13:10:01.417Z,1.70
2022-09-28T13:13:20.168Z,1.10
2022-09-28T13:16:30.150Z,0.70
2022-09-28T13:19:40.702Z,0.88
2022-09-28T13:22:50.833Z,0.70
2022-09-28T13:25:58.131Z,0.90
2022-09-28T13:29:06.146Z,1.00
2022-09-28T13:32:12.055Z,2.33
2022-09-28T13:35:19.313Z,1.10
2022-09-28T13:38:47.243Z,1.80
2022-09-28T13:41:50.782Z,1.67
2022-09-28T13:45:09.512Z,1.37
2022-09-28T13:48:17.031Z,1.00
2022-09-28T13:51:38.690Z,0.90
2022-09-28T13:55:00.212Z,1.20
2022-09-28T13:58:06.571Z,1.00
2022-09-28T14:01:14.054Z,1.20
2022-09-28T14:04:19.836Z,1.05
2022-09-28T14:07:26.294Z,0.95
2022-09-28T14:10:48.863Z,0.90
2022-09-28T14:14:07.215Z,0.75
2022-09-28T14:17:51.755Z,0.80
2022-09-28T14:21:20.090Z,1.30
2022-09-28T14:24:39.862Z,3.80
2022-09-28T14:28:01.369Z,1.48
2022-09-28T14:31:11.145Z,1.00
2022-09-28T14:34:37.689Z,0.93
2022-09-28T14:37:59.831Z,0.80
2022-09-28T14:41:12.690Z,2.00
2022-09-28T14:44:17.122Z,2.28
2022-09-28T14:47:27.277Z,1.67
2022-09-28T14:50:31.408Z,1.70
2022-09-28T14:53:39.778Z,1.00
2022-09-28T14:56:45.677Z,1.08
2022-09-28T14:59:48.399Z,1.27
2022-09-28T15:02:53.166Z,1.25
2022-09-28T15:05:57.175Z,1.13
2022-09-28T15:08:59.734Z,1.10
2022-09-28T15:12:03.947Z,1.13
2022-09-28T15:15:19.071Z,0.98
2022-09-28T15:18:53.904Z,2.03
2022-09-28T15:21:57.910Z,1.50
2022-09-28T15:25:03.020Z,1.40
2022-09-28T15:28:19.095Z,1.65
2022-09-28T15:31:24.270Z,2.08
2022-09-28T15:34:49.422Z,2.00
2022-09-28T15:37:55.381Z,2.43
2022-09-28T15:40:58.393Z,2.10
2022-09-28T15:44:20.141Z,2.00
2022-09-28T15:47:28.039Z,2.20
2022-09-28T15:50:31.797Z,2.88
2022-09-28T15:53:35.749Z,2.33
2022-09-28T15:56:52.484Z,2.25
2022-09-28T15:59:56.869Z,2.65
2022-09-28T16:03:01.605Z,2.20
2022-09-28T16:06:08.741Z,2.25
2022-09-28T16:12:48.150Z,2.20
2022-09-28T16:15:58.179Z,2.13
2022-09-28T16:19:02.073Z,2.50
2022-09-28T16:22:07.935Z,2.38
2022-09-28T16:25:19.216Z,2.60
2022-09-28T16:28:51.647Z,2.00
2022-09-28T16:31:54.249Z,2.10
2022-09-28T16:35:18.066Z,3.10
2022-09-28T16:38:20.967Z,2.30
2022-09-28T16:41:26.951Z,4.55
2022-09-28T16:44:31.812Z,3.67
2022-09-28T16:47:35.049Z,2.90
2022-09-28T16:50:37.600Z,2.73
2022-09-28T16:53:57.892Z,2.40
2022-09-28T16:57:01.463Z,2.50
2022-09-28T17:00:06.352Z,2.50
2022-09-28T17:03:14.574Z,2.30
2022-09-28T17:06:18.943Z,2.50
2022-09-28T17:09:22.324Z,2.22
2022-09-28T17:12:29.091Z,3.00
2022-09-28T17:15:33.109Z,2.28
2022-09-28T17:18:39.034Z,1.73
2022-09-28T17:21:41.863Z,1.80
2022-09-28T17:24:45.522Z,1.60
2022-09-28T17:27:49.644Z,1.40
2022-09-28T17:30:53.825Z,1.63
2022-09-28T17:33:56.602Z,1.40
2022-09-28T17:36:59.240Z,1.40
2022-09-28T17:40:02.320Z,1.90
2022-09-28T17:43:05.715Z,1.75
2022-09-28T17:46:25.551Z,1.40
2022-09-28T17:49:28.415Z,1.90
2022-09-28T17:52:32.174Z,1.80
2022-09-28T17:55:36.661Z,1.80
2022-09-28T17:58:39.533Z,1.70
2022-09-28T18:01:43.667Z,1.67
2022-09-28T18:04:52.311Z,1.60
2022-09-28T18:07:55.328Z,1.70
2022-09-28T18:10:57.884Z,1.60
2022-09-28T18:14:00.729Z,1.58
2022-09-28T18:17:04.799Z,1.77
2022-09-28T18:20:10.029Z,1.90
2022-09-28T18:23:12.707Z,1.90
2022-09-28T18:26:16.739Z,1.77
2022-09-28T18:29:19.498Z,2.20
2022-09-28T18:32:23.773Z,1.98
2022-09-28T18:35:26.466Z,2.30
2022-09-28T18:38:29.069Z,2.50
2022-09-28T18:41:31.742Z,2.00
2022-09-28T18:44:34.662Z,2.10
2022-09-28T18:47:39.057Z,2.38
2022-09-28T18:50:43.245Z,2.20
2022-09-28T18:53:46.144Z,2.00
2022-09-28T18:56:50.229Z,2.10
2022-09-28T18:59:52.921Z,2.03
2022-09-28T19:02:57.062Z,2.35
2022-09-28T19:05:59.714Z,2.60
2022-09-28T19:09:02.531Z,3.03
2022-09-28T19:12:05.370Z,2.90
2022-09-28T19:15:08.767Z,2.85
2022-09-28T19:18:12.790Z,2.67
2022-09-28T19:21:16.665Z,3.23
2022-09-28T19:24:20.030Z,3.23
2022-09-28T19:27:22.578Z,3.00
2022-09-28T19:30:25.274Z,3.60
2022-09-28T19:33:29.473Z,3.35
2022-09-28T19:36:32.947Z,3.50
2022-09-28T19:39:35.591Z,3.57
2022-09-28T19:42:39.512Z,3.30
2022-09-28T19:45:42.837Z,3.60
2022-09-28T19:48:47.351Z,3.53
2022-09-28T19:52:11.489Z,4.00
2022-09-28T19:55:13.651Z,4.40
2022-09-28T19:58:16.366Z,4.70
2022-09-28T20:01:19.061Z,3.90
2022-09-28T20:04:23.771Z,3.88
2022-09-28T20:07:26.351Z,4.10
2022-09-28T20:10:29.505Z,4.20
2022-09-28T20:13:33.754Z,4.43
2022-09-28T20:16:37.749Z,5.10
2022-09-28T20:19:41.811Z,4.63
2022-09-28T20:22:44.417Z,5.43
2022-09-28T20:25:47.141Z,5.10
2022-09-28T20:28:49.754Z,5.55
2022-09-28T20:31:52.486Z,5.93
2022-09-28T20:34:56.494Z,6.00
2022-09-28T20:38:07.666Z,6.17
2022-09-28T20:41:11.091Z,6.03
2022-09-28T20:44:13.795Z,5.30
2022-09-28T20:47:16.547Z,6.80
2022-09-28T20:50:21.928Z,5.70
2022-09-28T20:53:24.651Z,5.93
2022-09-28T20:56:28.979Z,5.20
2022-09-28T20:59:31.544Z,4.45
2022-09-28T21:02:34.291Z,3.90
2022-09-28T21:05:38.353Z,3.90
2022-09-28T21:08:40.940Z,3.53
2022-09-28T21:11:43.509Z,3.60
2022-09-28T21:14:46.073Z,3.08
2022-09-28T21:17:48.851Z,3.30
2022-09-28T21:20:52.899Z,2.90
2022-09-28T21:23:56.442Z,3.00
2022-09-28T21:26:59.552Z,3.03
2022-09-28T21:30:02.100Z,3.38
2022-09-28T21:33:04.856Z,2.90
2022-09-28T21:36:09.899Z,3.03
2022-09-28T21:39:12.460Z,3.30
2022-09-28T21:42:15.187Z,3.17
2022-09-28T21:45:17.856Z,3.22
2022-09-28T21:48:21.114Z,2.60
2022-09-28T21:51:25.225Z,3.20
2022-09-28T21:54:28.859Z,3.07
2022-09-28T21:57:31.555Z,3.20
2022-09-28T22:00:34.518Z,2.83
2022-09-28T22:03:39.041Z,2.90
2022-09-28T22:06:43.107Z,2.63
2022-09-28T22:09:47.132Z,3.08
2022-09-28T22:12:52.184Z,2.58
2022-09-28T22:15:54.804Z,2.50
2022-09-28T22:18:57.572Z,2.43
2022-09-28T22:22:01.701Z,2.60
2022-09-28T22:25:04.455Z,2.53
2022-09-28T22:28:07.145Z,2.53
2022-09-28T22:31:09.743Z,2.43
2022-09-28T22:34:12.529Z,2.40
2022-09-28T22:37:16.545Z,2.20
2022-09-28T22:40:19.920Z,2.17
2022-09-28T22:43:24.432Z,2.47
2022-09-28T22:46:28.796Z,2.80
2022-09-28T22:49:32.441Z,2.50
2022-09-28T22:52:36.462Z,2.30
2022-09-28T22:55:38.986Z,2.50
2022-09-28T22:58:41.873Z,2.40
2022-09-28T23:01:44.478Z,2.50
2022-09-28T23:04:47.195Z,2.08
2022-09-28T23:07:51.333Z,2.08
2022-09-28T23:10:53.938Z,2.40
2022-09-28T23:13:58.246Z,2.57
2022-09-28T23:17:00.808Z,2.50
2022-09-28T23:20:03.945Z,2.55
2022-09-28T23:23:07.976Z,2.38
2022-09-28T23:26:14.382Z,2.17
2022-09-28T23:29:17.123Z,2.80
2022-09-28T23:32:19.804Z,2.30
2022-09-28T23:35:22.741Z,2.40
2022-09-28T23:38:26.793Z,2.67
2022-09-28T23:41:29.591Z,3.00
2022-09-28T23:44:33.013Z,2.53
2022-09-28T23:47:37.282Z,2.72
2022-09-28T23:50:39.964Z,3.05
2022-09-28T23:53:44.364Z,2.67
2022-09-28T23:56:46.926Z,2.80
2022-09-28T23:59:49.623Z,2.40
